sensor_id;sensor_type;location;lat;lon;timestamp;pressure;altitude;pressure_sealevel;temperature;humidity
54329;BME280;40710;51.120;13.136;2023-12-29T00:01:11;99056.91;;;10.20;59.19
54329;BME280;40710;51.120;13.136;2023-12-29T00:03:35;99051.22;;;10.28;59.08
54329;BME280;40710;51.120;13.136;2023-12-29T00:06:02;99048.38;;;10.63;58.21
54329;BME280;40710;51.120;13.136;2023-12-29T00:08:27;99031.06;;;10.89;57.99
54329;BME280;40710;51.120;13.136;2023-12-29T00:10:51;99051.94;;;9.84;59.62
54329;BME280;40710;51.120;13.136;2023-12-29T00:13:16;99045.66;;;9.71;61.29
54329;BME280;40710;51.120;13.136;2023-12-29T00:15:46;99048.88;;;9.76;60.51
54329;BME280;40710;51.120;13.136;2023-12-29T00:18:11;99063.34;;;9.83;60.49
54329;BME280;40710;51.120;13.136;2023-12-29T00:20:35;99053.13;;;9.94;60.61
54329;BME280;40710;51.120;13.136;2023-12-29T00:23:01;99050.63;;;10.39;59.27
54329;BME280;40710;51.120;13.136;2023-12-29T00:25:25;99051.47;;;10.39;58.98
54329;BME280;40710;51.120;13.136;2023-12-29T00:27:50;99054.22;;;10.22;59.29
54329;BME280;40710;51.120;13.136;2023-12-29T00:30:14;99032.84;;;10.89;58.79
54329;BME280;40710;51.120;13.136;2023-12-29T00:32:39;99028.78;;;10.38;59.30
54329;BME280;40710;51.120;13.136;2023-12-29T00:35:04;99024.69;;;10.49;59.56
54329;BME280;40710;51.120;13.136;2023-12-29T00:37:29;99025.78;;;10.29;59.53
54329;BME280;40710;51.120;13.136;2023-12-29T00:39:53;99028.09;;;10.65;59.54
54329;BME280;40710;51.120;13.136;2023-12-29T00:42:18;99020.44;;;10.76;58.36
54329;BME280;40710;51.120;13.136;2023-12-29T00:44:42;99022.94;;;10.33;59.85
54329;BME280;40710;51.120;13.136;2023-12-29T00:47:07;99015.63;;;10.69;59.44
54329;BME280;40710;51.120;13.136;2023-12-29T00:49:32;99024.41;;;10.84;58.88
54329;BME280;40710;51.120;13.136;2023-12-29T00:51:56;99026.41;;;10.18;60.10
54329;BME280;40710;51.120;13.136;2023-12-29T00:54:21;99026.75;;;10.28;60.02
54329;BME280;40710;51.120;13.136;2023-12-29T00:56:49;99001.41;;;10.87;58.43
54329;BME280;40710;51.120;13.136;2023-12-29T00:59:14;99006.81;;;10.39;59.56
54329;BME280;40710;51.120;13.136;2023-12-29T01:01:38;99007.94;;;10.35;59.71
54329;BME280;40710;51.120;13.136;2023-12-29T01:04:03;98987.75;;;10.52;59.41
54329;BME280;40710;51.120;13.136;2023-12-29T01:06:27;98999.06;;;10.22;60.68
54329;BME280;40710;51.120;13.136;2023-12-29T01:08:52;98976.03;;;10.86;58.09
54329;BME280;40710;51.120;13.136;2023-12-29T01:11:17;98985.31;;;10.77;58.65
54329;BME280;40710;51.120;13.136;2023-12-29T01:13:41;98990.63;;;11.06;58.18
54329;BME280;40710;51.120;13.136;2023-12-29T01:16:06;98987.53;;;10.55;59.26
54329;BME280;40710;51.120;13.136;2023-12-29T01:18:31;98980.91;;;10.78;58.23
54329;BME280;40710;51.120;13.136;2023-12-29T01:20:56;98985.03;;;10.68;58.98
54329;BME280;40710;51.120;13.136;2023-12-29T01:23:20;99000.59;;;10.71;59.18
54329;BME280;40710;51.120;13.136;2023-12-29T01:25:45;99004.59;;;10.48;59.48
54329;BME280;40710;51.120;13.136;2023-12-29T01:28:09;98978.72;;;10.26;60.06
54329;BME280;40710;51.120;13.136;2023-12-29T01:30:34;98994.69;;;10.67;59.20
54329;BME280;40710;51.120;13.136;2023-12-29T01:32:58;98989.41;;;10.53;59.04
54329;BME280;40710;51.120;13.136;2023-12-29T01:35:23;98992.41;;;10.31;59.64
54329;BME280;40710;51.120;13.136;2023-12-29T01:37:47;98974.19;;;11.59;56.69
54329;BME280;40710;51.120;13.136;2023-12-29T01:40:12;98963.38;;;10.78;58.22
54329;BME280;40710;51.120;13.136;2023-12-29T01:42:36;98972.00;;;10.95;57.82
54329;BME280;40710;51.120;13.136;2023-12-29T01:45:01;98976.69;;;10.75;58.00
54329;BME280;40710;51.120;13.136;2023-12-29T01:47:26;98975.00;;;11.32;57.29
54329;BME280;40710;51.120;13.136;2023-12-29T01:49:50;98963.06;;;11.26;56.37
54329;BME280;40710;51.120;13.136;2023-12-29T01:52:17;98971.91;;;11.11;56.19
54329;BME280;40710;51.120;13.136;2023-12-29T01:54:44;98980.47;;;11.00;57.06
54329;BME280;40710;51.120;13.136;2023-12-29T01:57:10;98963.38;;;11.07;56.27
54329;BME280;40710;51.120;13.136;2023-12-29T01:59:37;98953.16;;;11.44;55.20
54329;BME280;40710;51.120;13.136;2023-12-29T02:02:02;98956.38;;;11.35;55.95
54329;BME280;40710;51.120;13.136;2023-12-29T02:04:28;98944.81;;;11.52;55.28
54329;BME280;40710;51.120;13.136;2023-12-29T02:06:53;98949.38;;;11.07;55.50
54329;BME280;40710;51.120;13.136;2023-12-29T02:09:18;98937.38;;;11.44;55.35
54329;BME280;40710;51.120;13.136;2023-12-29T02:11:43;98930.88;;;11.64;55.26
54329;BME280;40710;51.120;13.136;2023-12-29T02:14:08;98925.66;;;11.35;55.38
54329;BME280;40710;51.120;13.136;2023-12-29T02:16:40;98918.59;;;11.50;54.72
54329;BME280;40710;51.120;13.136;2023-12-29T02:19:25;98909.19;;;11.46;55.08
54329;BME280;40710;51.120;13.136;2023-12-29T02:21:53;98908.53;;;11.43;54.67
54329;BME280;40710;51.120;13.136;2023-12-29T02:24:17;98891.03;;;11.83;54.39
54329;BME280;40710;51.120;13.136;2023-12-29T02:26:50;98918.72;;;11.62;54.20
54329;BME280;40710;51.120;13.136;2023-12-29T02:29:20;98906.41;;;11.35;55.42
54329;BME280;40710;51.120;13.136;2023-12-29T02:31:50;98885.00;;;10.85;56.50
54329;BME280;40710;51.120;13.136;2023-12-29T02:34:19;98880.50;;;11.83;54.96
54329;BME280;40710;51.120;13.136;2023-12-29T02:36:48;98888.56;;;12.07;53.93
54329;BME280;40710;51.120;13.136;2023-12-29T02:39:14;98895.00;;;12.03;54.73
54329;BME280;40710;51.120;13.136;2023-12-29T02:41:39;98901.75;;;10.97;56.88
54329;BME280;40710;51.120;13.136;2023-12-29T02:44:04;98904.94;;;11.16;56.52
54329;BME280;40710;51.120;13.136;2023-12-29T02:46:28;98898.09;;;11.56;55.95
54329;BME280;40710;51.120;13.136;2023-12-29T02:48:53;98892.56;;;11.46;56.37
54329;BME280;40710;51.120;13.136;2023-12-29T02:51:17;98883.63;;;11.76;55.84
54329;BME280;40710;51.120;13.136;2023-12-29T02:53:42;98890.13;;;11.01;57.08
54329;BME280;40710;51.120;13.136;2023-12-29T02:56:06;98881.56;;;11.39;56.17
54329;BME280;40710;51.120;13.136;2023-12-29T02:58:31;98890.31;;;11.67;56.30
54329;BME280;40710;51.120;13.136;2023-12-29T03:00:55;98886.66;;;11.69;55.56
54329;BME280;40710;51.120;13.136;2023-12-29T03:03:20;98889.97;;;11.59;55.52
54329;BME280;40710;51.120;13.136;2023-12-29T03:05:45;98895.13;;;11.33;57.26
54329;BME280;40710;51.120;13.136;2023-12-29T03:08:10;98901.00;;;11.09;57.92
54329;BME280;40710;51.120;13.136;2023-12-29T03:10:34;98881.75;;;11.09;56.91
54329;BME280;40710;51.120;13.136;2023-12-29T03:12:59;98897.91;;;11.17;57.08
54329;BME280;40710;51.120;13.136;2023-12-29T03:15:23;98890.09;;;11.15;57.16
54329;BME280;40710;51.120;13.136;2023-12-29T03:17:48;98886.28;;;11.88;55.99
54329;BME280;40710;51.120;13.136;2023-12-29T03:20:12;98877.84;;;12.23;54.69
54329;BME280;40710;51.120;13.136;2023-12-29T03:22:37;98891.22;;;11.26;56.99
54329;BME280;40710;51.120;13.136;2023-12-29T03:25:02;98893.00;;;11.11;57.38
54329;BME280;40710;51.120;13.136;2023-12-29T03:27:26;98893.53;;;11.85;56.23
54329;BME280;40710;51.120;13.136;2023-12-29T03:29:51;98879.44;;;12.39;54.91
54329;BME280;40710;51.120;13.136;2023-12-29T03:32:16;98895.44;;;12.10;54.97
54329;BME280;40710;51.120;13.136;2023-12-29T03:34:41;98901.38;;;11.18;57.37
54329;BME280;40710;51.120;13.136;2023-12-29T03:37:06;98901.00;;;11.09;57.76
54329;BME280;40710;51.120;13.136;2023-12-29T03:39:30;98909.75;;;10.95;58.77
54329;BME280;40710;51.120;13.136;2023-12-29T03:41:55;98899.22;;;11.51;57.18
54329;BME280;40710;51.120;13.136;2023-12-29T03:44:19;98905.59;;;11.06;57.95
54329;BME280;40710;51.120;13.136;2023-12-29T03:46:44;98890.66;;;11.21;57.96
54329;BME280;40710;51.120;13.136;2023-12-29T03:49:08;98900.84;;;10.84;59.17
54329;BME280;40710;51.120;13.136;2023-12-29T03:51:33;98890.56;;;11.08;58.17
54329;BME280;40710;51.120;13.136;2023-12-29T03:53:57;98895.22;;;10.75;59.79
54329;BME280;40710;51.120;13.136;2023-12-29T03:56:25;98883.00;;;11.30;57.90
54329;BME280;40710;51.120;13.136;2023-12-29T03:58:49;98876.53;;;11.36;57.94
54329;BME280;40710;51.120;13.136;2023-12-29T04:01:16;98890.50;;;10.95;59.50
54329;BME280;40710;51.120;13.136;2023-12-29T04:03:41;98872.28;;;10.92;58.98
54329;BME280;40710;51.120;13.136;2023-12-29T04:06:06;98863.47;;;11.34;58.25
54329;BME280;40710;51.120;13.136;2023-12-29T04:08:32;98872.00;;;10.53;60.50
54329;BME280;40710;51.120;13.136;2023-12-29T04:10:57;98862.72;;;11.60;58.00
54329;BME280;40710;51.120;13.136;2023-12-29T04:13:21;98863.75;;;11.30;58.21
54329;BME280;40710;51.120;13.136;2023-12-29T04:15:46;98867.41;;;11.00;59.18
54329;BME280;40710;51.120;13.136;2023-12-29T04:18:10;98855.50;;;11.76;57.35
54329;BME280;40710;51.120;13.136;2023-12-29T04:20:35;98871.38;;;11.20;58.38
54329;BME280;40710;51.120;13.136;2023-12-29T04:22:59;98868.88;;;11.73;56.63
54329;BME280;40710;51.120;13.136;2023-12-29T04:25:24;98861.81;;;11.46;57.65
54329;BME280;40710;51.120;13.136;2023-12-29T04:27:48;98873.72;;;11.25;58.15
54329;BME280;40710;51.120;13.136;2023-12-29T04:30:13;98860.38;;;11.28;57.21
54329;BME280;40710;51.120;13.136;2023-12-29T04:32:37;98857.28;;;12.28;56.54
54329;BME280;40710;51.120;13.136;2023-12-29T04:35:02;98847.47;;;12.56;54.96
54329;BME280;40710;51.120;13.136;2023-12-29T04:37:27;98854.03;;;12.12;55.66
54329;BME280;40710;51.120;13.136;2023-12-29T04:39:51;98852.66;;;12.06;55.41
54329;BME280;40710;51.120;13.136;2023-12-29T04:42:16;98849.59;;;12.00;55.40
54329;BME280;40710;51.120;13.136;2023-12-29T04:44:42;98858.09;;;11.90;55.35
54329;BME280;40710;51.120;13.136;2023-12-29T04:47:06;98861.53;;;11.24;56.68
54329;BME280;40710;51.120;13.136;2023-12-29T04:49:32;98832.63;;;11.91;55.50
54329;BME280;40710;51.120;13.136;2023-12-29T04:51:56;98836.53;;;12.37;53.85
54329;BME280;40710;51.120;13.136;2023-12-29T04:54:21;98834.84;;;12.10;53.91
54329;BME280;40710;51.120;13.136;2023-12-29T04:56:45;98865.47;;;11.16;55.92
54329;BME280;40710;51.120;13.136;2023-12-29T04:59:10;98851.06;;;11.37;55.82
54329;BME280;40710;51.120;13.136;2023-12-29T05:01:34;98857.41;;;11.20;55.62
54329;BME280;40710;51.120;13.136;2023-12-29T05:03:59;98854.72;;;11.07;56.32
54329;BME280;40710;51.120;13.136;2023-12-29T05:06:23;98845.94;;;11.88;54.41
54329;BME280;40710;51.120;13.136;2023-12-29T05:08:48;98845.47;;;11.68;54.67
54329;BME280;40710;51.120;13.136;2023-12-29T05:11:12;98836.84;;;11.66;54.61
54329;BME280;40710;51.120;13.136;2023-12-29T05:13:37;98813.69;;;12.12;53.15
54329;BME280;40710;51.120;13.136;2023-12-29T05:16:02;98831.22;;;11.04;55.00
54329;BME280;40710;51.120;13.136;2023-12-29T05:18:28;98832.59;;;11.51;54.80
54329;BME280;40710;51.120;13.136;2023-12-29T05:20:54;98807.00;;;12.06;52.92
54329;BME280;40710;51.120;13.136;2023-12-29T05:23:18;98824.03;;;11.20;55.46
54329;BME280;40710;51.120;13.136;2023-12-29T05:25:43;98820.28;;;11.91;53.40
54329;BME280;40710;51.120;13.136;2023-12-29T05:28:07;98819.16;;;11.96;53.48
54329;BME280;40710;51.120;13.136;2023-12-29T05:30:32;98810.59;;;12.18;53.01
54329;BME280;40710;51.120;13.136;2023-12-29T05:32:56;98812.53;;;11.76;53.30
54329;BME280;40710;51.120;13.136;2023-12-29T05:35:21;98828.97;;;11.12;55.14
54329;BME280;40710;51.120;13.136;2023-12-29T05:37:45;98816.03;;;11.36;54.49
54329;BME280;40710;51.120;13.136;2023-12-29T05:40:10;98818.72;;;11.07;54.75
54329;BME280;40710;51.120;13.136;2023-12-29T05:42:35;98801.38;;;11.32;54.31
54329;BME280;40710;51.120;13.136;2023-12-29T05:44:59;98801.78;;;11.26;54.71
54329;BME280;40710;51.120;13.136;2023-12-29T05:47:24;98807.47;;;11.32;55.26
54329;BME280;40710;51.120;13.136;2023-12-29T05:49:48;98804.66;;;11.08;56.11
54329;BME280;40710;51.120;13.136;2023-12-29T05:52:13;98801.63;;;11.42;54.66
54329;BME280;40710;51.120;13.136;2023-12-29T05:54:38;98804.06;;;11.18;55.02
54329;BME280;40710;51.120;13.136;2023-12-29T05:57:02;98793.34;;;11.21;54.76
54329;BME280;40710;51.120;13.136;2023-12-29T05:59:27;98790.69;;;11.48;54.61
54329;BME280;40710;51.120;13.136;2023-12-29T06:01:51;98806.13;;;11.12;54.66
54329;BME280;40710;51.120;13.136;2023-12-29T06:04:16;98803.22;;;11.17;54.77
54329;BME280;40710;51.120;13.136;2023-12-29T06:06:44;98805.34;;;10.97;55.03
54329;BME280;40710;51.120;13.136;2023-12-29T06:09:09;98814.13;;;11.38;54.14
54329;BME280;40710;51.120;13.136;2023-12-29T06:11:34;98803.63;;;11.51;53.83
54329;BME280;40710;51.120;13.136;2023-12-29T06:13:59;98811.53;;;10.96;55.52
54329;BME280;40710;51.120;13.136;2023-12-29T06:16:23;98796.47;;;11.40;55.39
54329;BME280;40710;51.120;13.136;2023-12-29T06:18:50;98775.38;;;11.00;55.94
54329;BME280;40710;51.120;13.136;2023-12-29T06:21:15;98781.50;;;10.86;56.25
54329;BME280;40710;51.120;13.136;2023-12-29T06:23:40;98786.03;;;11.11;56.19
54329;BME280;40710;51.120;13.136;2023-12-29T06:26:04;98782.38;;;10.72;57.14
54329;BME280;40710;51.120;13.136;2023-12-29T06:28:29;98790.13;;;10.47;57.42
54329;BME280;40710;51.120;13.136;2023-12-29T06:30:53;98791.47;;;10.81;57.17
54329;BME280;40710;51.120;13.136;2023-12-29T06:33:18;98770.16;;;10.86;56.51
54329;BME280;40710;51.120;13.136;2023-12-29T06:35:45;98766.34;;;11.04;55.59
54329;BME280;40710;51.120;13.136;2023-12-29T06:38:09;98788.28;;;10.76;56.56
54329;BME280;40710;51.120;13.136;2023-12-29T06:40:35;98772.41;;;10.50;56.79
54329;BME280;40710;51.120;13.136;2023-12-29T06:43:00;98757.03;;;10.86;56.71
54329;BME280;40710;51.120;13.136;2023-12-29T06:45:25;98759.22;;;10.65;56.54
54329;BME280;40710;51.120;13.136;2023-12-29T06:47:49;98756.66;;;10.77;56.31
54329;BME280;40710;51.120;13.136;2023-12-29T06:50:14;98750.41;;;11.20;55.45
54329;BME280;40710;51.120;13.136;2023-12-29T06:52:39;98766.38;;;10.90;55.61
54329;BME280;40710;51.120;13.136;2023-12-29T06:55:04;98768.28;;;11.15;55.89
54329;BME280;40710;51.120;13.136;2023-12-29T06:57:28;98772.56;;;10.47;56.68
54329;BME280;40710;51.120;13.136;2023-12-29T06:59:53;98768.66;;;10.82;56.37
54329;BME280;40710;51.120;13.136;2023-12-29T07:02:17;98755.50;;;10.96;55.94
54329;BME280;40710;51.120;13.136;2023-12-29T07:04:42;98763.06;;;10.73;56.11
54329;BME280;40710;51.120;13.136;2023-12-29T07:07:07;98774.31;;;10.75;56.27
54329;BME280;40710;51.120;13.136;2023-12-29T07:09:32;98760.38;;;10.88;56.15
54329;BME280;40710;51.120;13.136;2023-12-29T07:11:56;98773.38;;;10.76;56.28
54329;BME280;40710;51.120;13.136;2023-12-29T07:14:24;98775.81;;;10.65;57.29
54329;BME280;40710;51.120;13.136;2023-12-29T07:16:48;98773.13;;;11.21;55.71
54329;BME280;40710;51.120;13.136;2023-12-29T07:19:13;98763.81;;;11.30;55.49
54329;BME280;40710;51.120;13.136;2023-12-29T07:21:37;98806.19;;;10.98;56.17
54329;BME280;40710;51.120;13.136;2023-12-29T07:24:02;98784.47;;;11.09;56.25
54329;BME280;40710;51.120;13.136;2023-12-29T07:26:26;98798.66;;;10.65;56.99
54329;BME280;40710;51.120;13.136;2023-12-29T07:28:52;98785.06;;;11.00;56.85
54329;BME280;40710;51.120;13.136;2023-12-29T07:31:18;98793.41;;;10.92;56.60
54329;BME280;40710;51.120;13.136;2023-12-29T07:33:43;98802.81;;;11.50;55.45
54329;BME280;40710;51.120;13.136;2023-12-29T07:36:07;98814.84;;;10.86;56.77
54329;BME280;40710;51.120;13.136;2023-12-29T07:38:32;98822.28;;;11.21;55.86
54329;BME280;40710;51.120;13.136;2023-12-29T07:40:56;98820.44;;;11.88;54.66
54329;BME280;40710;51.120;13.136;2023-12-29T07:43:21;98814.28;;;12.41;53.24
54329;BME280;40710;51.120;13.136;2023-12-29T07:45:46;98841.16;;;11.95;54.46
54329;BME280;40710;51.120;13.136;2023-12-29T07:48:10;98835.09;;;11.40;55.59
54329;BME280;40710;51.120;13.136;2023-12-29T07:50:35;98848.31;;;11.65;55.41
54329;BME280;40710;51.120;13.136;2023-12-29T07:53:01;98849.03;;;11.27;56.33
54329;BME280;40710;51.120;13.136;2023-12-29T07:55:27;98833.38;;;12.57;53.15
54329;BME280;40710;51.120;13.136;2023-12-29T07:57:51;98838.25;;;11.85;54.64
54329;BME280;40710;51.120;13.136;2023-12-29T08:00:18;98849.94;;;11.81;55.18
54329;BME280;40710;51.120;13.136;2023-12-29T08:02:42;98838.00;;;12.66;53.48
54329;BME280;40710;51.120;13.136;2023-12-29T08:05:07;98833.25;;;12.07;53.82
54329;BME280;40710;51.120;13.136;2023-12-29T08:07:35;98841.59;;;12.01;54.01
54329;BME280;40710;51.120;13.136;2023-12-29T08:10:01;98844.31;;;12.13;54.69
54329;BME280;40710;51.120;13.136;2023-12-29T08:12:28;98841.59;;;12.01;54.33
54329;BME280;40710;51.120;13.136;2023-12-29T08:14:53;98837.97;;;12.02;54.76
54329;BME280;40710;51.120;13.136;2023-12-29T08:17:17;98847.28;;;12.21;54.81
54329;BME280;40710;51.120;13.136;2023-12-29T08:19:42;98831.25;;;12.11;54.24
54329;BME280;40710;51.120;13.136;2023-12-29T08:22:07;98819.47;;;12.17;54.78
54329;BME280;40710;51.120;13.136;2023-12-29T08:24:31;98813.97;;;12.45;53.76
54329;BME280;40710;51.120;13.136;2023-12-29T08:26:56;98825.59;;;12.17;54.19
54329;BME280;40710;51.120;13.136;2023-12-29T08:29:20;98835.66;;;11.58;55.90
54329;BME280;40710;51.120;13.136;2023-12-29T08:31:46;98829.78;;;12.07;55.06
54329;BME280;40710;51.120;13.136;2023-12-29T08:34:11;98842.06;;;11.94;54.50
54329;BME280;40710;51.120;13.136;2023-12-29T08:36:36;98845.22;;;11.59;55.92
54329;BME280;40710;51.120;13.136;2023-12-29T08:39:01;98815.03;;;12.17;55.04
54329;BME280;40710;51.120;13.136;2023-12-29T08:41:26;98828.53;;;12.25;55.13
54329;BME280;40710;51.120;13.136;2023-12-29T08:43:50;98823.28;;;12.25;55.58
54329;BME280;40710;51.120;13.136;2023-12-29T08:46:15;98831.19;;;12.25;55.48
54329;BME280;40710;51.120;13.136;2023-12-29T08:48:39;98814.59;;;12.23;55.83
54329;BME280;40710;51.120;13.136;2023-12-29T08:51:04;98800.50;;;12.12;55.08
54329;BME280;40710;51.120;13.136;2023-12-29T08:53:28;98796.06;;;12.38;54.71
54329;BME280;40710;51.120;13.136;2023-12-29T08:55:55;98824.28;;;11.97;55.41
54329;BME280;40710;51.120;13.136;2023-12-29T08:58:20;98790.28;;;12.07;55.49
54329;BME280;40710;51.120;13.136;2023-12-29T09:00:44;98789.34;;;12.08;55.19
54329;BME280;40710;51.120;13.136;2023-12-29T09:03:09;98796.09;;;11.99;55.48
54329;BME280;40710;51.120;13.136;2023-12-29T09:05:34;98804.19;;;12.35;54.91
54329;BME280;40710;51.120;13.136;2023-12-29T09:07:59;98805.31;;;12.30;54.85
54329;BME280;40710;51.120;13.136;2023-12-29T09:10:23;98816.31;;;12.24;55.52
54329;BME280;40710;51.120;13.136;2023-12-29T09:12:48;98803.03;;;12.26;54.81
54329;BME280;40710;51.120;13.136;2023-12-29T09:15:13;98805.84;;;12.98;53.36
54329;BME280;40710;51.120;13.136;2023-12-29T09:17:38;98817.69;;;12.04;55.06
54329;BME280;40710;51.120;13.136;2023-12-29T09:20:03;98819.97;;;12.22;54.53
54329;BME280;40710;51.120;13.136;2023-12-29T09:22:28;98794.91;;;12.29;54.73
54329;BME280;40710;51.120;13.136;2023-12-29T09:24:54;98813.94;;;12.58;53.98
54329;BME280;40710;51.120;13.136;2023-12-29T09:27:19;98812.84;;;12.86;53.96
54329;BME280;40710;51.120;13.136;2023-12-29T09:29:44;98814.00;;;12.33;54.20
54329;BME280;40710;51.120;13.136;2023-12-29T09:32:08;98810.19;;;12.37;54.43
54329;BME280;40710;51.120;13.136;2023-12-29T09:34:33;98829.16;;;12.16;54.40
54329;BME280;40710;51.120;13.136;2023-12-29T09:36:57;98834.53;;;12.66;53.79
54329;BME280;40710;51.120;13.136;2023-12-29T09:39:22;98815.22;;;13.39;52.70
54329;BME280;40710;51.120;13.136;2023-12-29T09:41:46;98832.41;;;12.71;53.18
54329;BME280;40710;51.120;13.136;2023-12-29T09:44:16;98813.03;;;12.46;53.81
54329;BME280;40710;51.120;13.136;2023-12-29T09:46:49;98801.34;;;13.49;51.52
54329;BME280;40710;51.120;13.136;2023-12-29T09:49:16;98814.50;;;13.00;52.15
54329;BME280;40710;51.120;13.136;2023-12-29T09:51:43;98792.38;;;13.98;50.87
54329;BME280;40710;51.120;13.136;2023-12-29T09:54:08;98830.06;;;12.79;52.68
54329;BME280;40710;51.120;13.136;2023-12-29T09:56:34;98813.53;;;13.74;52.09
54329;BME280;40710;51.120;13.136;2023-12-29T09:59:01;98793.72;;;13.20;52.66
54329;BME280;40710;51.120;13.136;2023-12-29T10:01:28;98785.50;;;13.24;52.38
54329;BME280;40710;51.120;13.136;2023-12-29T10:03:55;98796.94;;;13.12;52.47
54329;BME280;40710;51.120;13.136;2023-12-29T10:06:21;98812.97;;;13.22;52.40
54329;BME280;40710;51.120;13.136;2023-12-29T10:08:49;98788.22;;;13.23;51.49
54329;BME280;40710;51.120;13.136;2023-12-29T10:11:17;98787.72;;;13.66;51.39
54329;BME280;40710;51.120;13.136;2023-12-29T10:13:44;98812.91;;;13.35;52.19
54329;BME280;40710;51.120;13.136;2023-12-29T10:16:23;98793.13;;;13.16;52.09
54329;BME280;40710;51.120;13.136;2023-12-29T10:19:00;98780.09;;;13.86;50.87
54329;BME280;40710;51.120;13.136;2023-12-29T10:21:29;98781.69;;;14.11;50.07
54329;BME280;40710;51.120;13.136;2023-12-29T10:24:07;98788.63;;;13.78;51.26
54329;BME280;40710;51.120;13.136;2023-12-29T10:26:34;98784.38;;;14.45;49.35
54329;BME280;40710;51.120;13.136;2023-12-29T10:29:00;98799.84;;;14.49;49.51
54329;BME280;40710;51.120;13.136;2023-12-29T10:31:25;98785.78;;;14.83;48.34
54329;BME280;40710;51.120;13.136;2023-12-29T10:33:51;98794.59;;;15.59;47.43
54329;BME280;40710;51.120;13.136;2023-12-29T10:36:16;98802.97;;;14.21;50.07
54329;BME280;40710;51.120;13.136;2023-12-29T10:38:40;98789.91;;;14.42;49.56
54329;BME280;40710;51.120;13.136;2023-12-29T10:41:14;98775.13;;;14.50;49.10
54329;BME280;40710;51.120;13.136;2023-12-29T10:43:38;98780.53;;;14.37;49.63
54329;BME280;40710;51.120;13.136;2023-12-29T10:46:06;98774.66;;;14.68;48.50
54329;BME280;40710;51.120;13.136;2023-12-29T10:48:31;98778.59;;;14.40;49.15
54329;BME280;40710;51.120;13.136;2023-12-29T10:50:56;98778.25;;;14.78;49.14
54329;BME280;40710;51.120;13.136;2023-12-29T10:53:22;98769.59;;;15.52;47.46
54329;BME280;40710;51.120;13.136;2023-12-29T10:55:46;98820.19;;;14.49;48.80
54329;BME280;40710;51.120;13.136;2023-12-29T10:58:11;98792.28;;;14.90;49.48
54329;BME280;40710;51.120;13.136;2023-12-29T11:00:35;98786.00;;;15.02;48.20
54329;BME280;40710;51.120;13.136;2023-12-29T11:03:01;98797.84;;;14.87;47.87
54329;BME280;40710;51.120;13.136;2023-12-29T11:05:26;98787.97;;;14.89;48.13
54329;BME280;40710;51.120;13.136;2023-12-29T11:07:50;98803.63;;;14.58;49.33
54329;BME280;40710;51.120;13.136;2023-12-29T11:10:18;98809.50;;;14.84;47.79
54329;BME280;40710;51.120;13.136;2023-12-29T11:12:43;98843.41;;;15.45;46.74
54329;BME280;40710;51.120;13.136;2023-12-29T11:15:08;98821.81;;;14.05;50.22
54329;BME280;40710;51.120;13.136;2023-12-29T11:17:35;98803.34;;;14.38;49.77
54329;BME280;40710;51.120;13.136;2023-12-29T11:20:01;98820.25;;;14.13;50.59
54329;BME280;40710;51.120;13.136;2023-12-29T11:22:31;98823.97;;;13.64;51.47
54329;BME280;40710;51.120;13.136;2023-12-29T11:24:59;98836.09;;;13.42;52.04
54329;BME280;40710;51.120;13.136;2023-12-29T11:27:26;98830.50;;;13.47;51.93
54329;BME280;40710;51.120;13.136;2023-12-29T11:29:51;98835.41;;;13.28;52.44
54329;BME280;40710;51.120;13.136;2023-12-29T11:32:23;98841.78;;;13.12;52.44
54329;BME280;40710;51.120;13.136;2023-12-29T11:34:57;98820.56;;;13.62;52.10
54329;BME280;40710;51.120;13.136;2023-12-29T11:40:41;98834.28;;;13.19;53.20
54329;BME280;40710;51.120;13.136;2023-12-29T11:43:13;98820.50;;;13.39;52.73
54329;BME280;40710;51.120;13.136;2023-12-29T11:45:39;98816.88;;;14.00;52.19
54329;BME280;40710;51.120;13.136;2023-12-29T11:48:03;98842.50;;;13.51;53.19
54329;BME280;40710;51.120;13.136;2023-12-29T11:50:34;98821.38;;;13.51;52.74
54329;BME280;40710;51.120;13.136;2023-12-29T11:52:59;98837.84;;;12.81;54.57
54329;BME280;40710;51.120;13.136;2023-12-29T11:55:37;98805.59;;;13.63;53.02
54329;BME280;40710;51.120;13.136;2023-12-29T11:58:23;98816.84;;;13.89;52.50
54329;BME280;40710;51.120;13.136;2023-12-29T12:00:48;98780.88;;;14.55;50.53
54329;BME280;40710;51.120;13.136;2023-12-29T12:03:24;98799.97;;;13.67;52.29
54329;BME280;40710;51.120;13.136;2023-12-29T12:05:49;98785.91;;;14.47;51.16
54329;BME280;40710;51.120;13.136;2023-12-29T12:08:34;98765.50;;;14.83;49.23
54329;BME280;40710;51.120;13.136;2023-12-29T12:14:02;98796.25;;;14.16;50.34
54329;BME280;40710;51.120;13.136;2023-12-29T12:19:06;98773.88;;;14.09;51.91
54329;BME280;40710;51.120;13.136;2023-12-29T12:21:31;98759.97;;;14.41;51.74
54329;BME280;40710;51.120;13.136;2023-12-29T12:23:57;98774.13;;;14.06;51.71
54329;BME280;40710;51.120;13.136;2023-12-29T12:26:25;98797.88;;;15.19;49.56
54329;BME280;40710;51.120;13.136;2023-12-29T12:28:53;98780.13;;;14.19;51.12
54329;BME280;40710;51.120;13.136;2023-12-29T12:31:18;98771.19;;;13.75;51.94
54329;BME280;40710;51.120;13.136;2023-12-29T12:33:53;98779.25;;;13.01;54.08
54329;BME280;40710;51.120;13.136;2023-12-29T12:36:18;98757.56;;;14.49;50.75
54329;BME280;40710;51.120;13.136;2023-12-29T12:38:50;98773.00;;;13.75;52.45
54329;BME280;40710;51.120;13.136;2023-12-29T12:41:16;98770.38;;;13.86;51.83
54329;BME280;40710;51.120;13.136;2023-12-29T12:44:11;98770.16;;;13.54;52.67
54329;BME280;40710;51.120;13.136;2023-12-29T12:46:34;98778.44;;;12.88;54.53
54329;BME280;40710;51.120;13.136;2023-12-29T12:49:02;98769.81;;;14.50;50.29
54329;BME280;40710;51.120;13.136;2023-12-29T12:51:28;98765.47;;;14.27;51.23